Date,TemperatureHighF,TemperatureAvgF,TemperatureLowF,DewpointHighF,DewpointAvgF,DewpointLowF,HumidityHigh,HumidityAvg,HumidityLow,PressureMaxIn,PressureMinIn,WindSpeedMaxMPH,WindSpeedAvgMPH,GustSpeedMaxMPH,PrecipitationSumIn
2013-1-1,54,49,43,-100,-100,-100,0,0,100,30.29,30.22,21,8,27,0.00
2013-1-2,59,50,43,-100,-100,-100,0,0,100,30.25,30.15,15,6,17,0.00
2013-1-3,60,48,40,-100,-100,-100,0,0,100,30.28,30.17,15,7,17,0.00
2013-1-4,59,50,44,-100,-100,-100,0,0,100,30.30,30.19,13,7,16,0.00
2013-1-5,53,48,44,-100,-100,-100,0,0,100,30.27,30.07,9,4,13,0.00
2013-1-6,53,49,47,-100,-100,-100,0,0,100,30.20,30.06,17,5,24,0.00
2013-1-7,56,50,44,-100,-100,-100,0,0,100,30.27,30.17,10,4,12,0.00
2013-1-8,61,51,45,-100,-100,-100,0,0,100,30.26,30.14,13,8,16,0.00
2013-1-9,54,49,46,-100,-100,-100,0,0,100,30.16,30.00,19,9,30,0.00
2013-1-10,53,48,44,-100,-100,-100,0,0,100,30.20,30.09,17,9,22,0.00
2013-1-11,54,47,42,-100,-100,-100,0,0,100,30.27,30.14,13,6,23,0.00
2013-1-12,52,45,40,-100,-100,-100,0,0,100,30.26,30.16,10,4,13,0.00
2013-1-13,52,44,36,-100,-100,-100,0,0,100,30.28,30.19,12,5,17,0.00
2013-1-14,54,46,40,-100,-100,-100,0,0,100,30.42,30.23,20,7,26,0.00
2013-1-15,53,46,40,-100,-100,-100,0,0,100,30.49,30.40,15,6,18,0.00
2013-1-16,59,47,39,-100,-100,-100,0,0,100,30.45,30.27,13,9,18,0.00
2013-1-17,66,53,44,-100,-100,-100,0,0,100,30.27,30.16,14,7,17,0.00
2013-1-18,66,56,47,-100,-100,-100,0,0,100,30.24,30.14,16,9,23,0.00
2013-1-19,64,54,45,-100,-100,-100,0,0,100,30.26,30.16,15,10,20,0.00
2013-1-20,66,55,47,-100,-100,-100,0,0,100,30.24,30.14,14,8,17,0.00
2013-1-21,67,54,45,-100,-100,-100,0,0,100,30.19,30.09,15,8,19,0.00
2013-1-22,64,54,48,-100,-100,-100,0,0,100,30.12,30.01,12,4,13,0.00
2013-1-23,55,53,51,-100,-100,-100,0,0,100,30.11,29.97,12,4,13,0.00
2013-1-24,61,55,51,-100,-100,-100,0,0,100,30.21,30.08,13,-2,17,0.00
2013-1-25,65,58,53,-100,-100,-100,0,0,100,30.21,30.06,11,6,14,0.00
2013-1-26,58,54,50,-100,-100,-100,0,0,100,30.10,30.00,22,9,29,0.00
2013-1-27,55,50,44,-100,-100,-100,0,0,100,30.19,30.08,15,8,23,0.00
2013-1-28,58,51,46,-100,-100,-100,0,0,100,30.30,30.17,15,7,21,0.00
2013-1-29,57,52,47,-100,-100,-100,0,0,100,30.37,30.28,10,4,13,0.00
2013-1-30,62,53,48,-100,-100,-100,0,0,100,30.35,30.27,8,-4,11,0.00
2013-1-31,67,56,47,-100,-100,-100,0,0,100,30.30,30.19,14,9,17,0.00